sensor_id;sensor_type;location;lat;lon;timestamp;P1;durP1;ratioP1;P2;durP2;ratioP2
62125;SDS011;48112;53.282;6.150;2022-09-17T00:00:33;0.30;;;0.30;;
62125;SDS011;48112;53.282;6.150;2022-09-17T00:01:34;0.30;;;0.30;;
62125;SDS011;48112;53.282;6.150;2022-09-17T00:02:38;0.30;;;0.30;;
62125;SDS011;48112;53.282;6.150;2022-09-17T00:03:40;0.20;;;0.20;;
62125;SDS011;48112;53.282;6.150;2022-09-17T00:04:43;0.30;;;0.30;;
62125;SDS011;48112;53.282;6.150;2022-09-17T00:05:48;0.28;;;0.28;;
62125;SDS011;48112;53.282;6.150;2022-09-17T00:06:50;0.30;;;0.30;;
62125;SDS011;48112;53.282;6.150;2022-09-17T00:07:54;0.30;;;0.30;;
62125;SDS011;48112;53.282;6.150;2022-09-17T00:08:56;0.30;;;0.30;;
62125;SDS011;48112;53.282;6.150;2022-09-17T00:09:59;0.20;;;0.20;;
62125;SDS011;48112;53.282;6.150;2022-09-17T00:11:05;0.20;;;0.20;;
62125;SDS011;48112;53.282;6.150;2022-09-17T00:12:09;0.30;;;0.30;;
62125;SDS011;48112;53.282;6.150;2022-09-17T00:13:13;0.25;;;0.25;;
62125;SDS011;48112;53.282;6.150;2022-09-17T00:14:16;0.20;;;0.20;;
62125;SDS011;48112;53.282;6.150;2022-09-17T00:15:20;0.20;;;0.20;;
62125;SDS011;48112;53.282;6.150;2022-09-17T00:16:24;0.20;;;0.20;;
62125;SDS011;48112;53.282;6.150;2022-09-17T00:17:29;0.25;;;0.25;;
62125;SDS011;48112;53.282;6.150;2022-09-17T00:18:32;0.28;;;0.28;;
62125;SDS011;48112;53.282;6.150;2022-09-17T00:19:37;0.28;;;0.28;;
62125;SDS011;48112;53.282;6.150;2022-09-17T00:20:40;0.30;;;0.30;;
62125;SDS011;48112;53.282;6.150;2022-09-17T00:21:45;0.20;;;0.20;;
62125;SDS011;48112;53.282;6.150;2022-09-17T00:22:48;0.30;;;0.30;;
62125;SDS011;48112;53.282;6.150;2022-09-17T00:23:54;0.20;;;0.20;;
62125;SDS011;48112;53.282;6.150;2022-09-17T00:24:58;0.20;;;0.20;;
62125;SDS011;48112;53.282;6.150;2022-09-17T00:26:03;0.20;;;0.20;;
62125;SDS011;48112;53.282;6.150;2022-09-17T00:27:06;0.20;;;0.20;;
62125;SDS011;48112;53.282;6.150;2022-09-17T00:28:10;0.20;;;0.20;;
62125;SDS011;48112;53.282;6.150;2022-09-17T00:29:15;0.30;;;0.30;;
62125;SDS011;48112;53.282;6.150;2022-09-17T00:30:18;0.20;;;0.20;;
62125;SDS011;48112;53.282;6.150;2022-09-17T00:31:20;0.20;;;0.20;;
62125;SDS011;48112;53.282;6.150;2022-09-17T00:32:24;0.20;;;0.20;;
62125;SDS011;48112;53.282;6.150;2022-09-17T00:33:28;0.20;;;0.20;;
62125;SDS011;48112;53.282;6.150;2022-09-17T00:34:31;0.20;;;0.20;;
62125;SDS011;48112;53.282;6.150;2022-09-17T00:35:34;0.20;;;0.20;;
62125;SDS011;48112;53.282;6.150;2022-09-17T00:36:37;0.20;;;0.20;;
62125;SDS011;48112;53.282;6.150;2022-09-17T00:37:43;0.20;;;0.20;;
62125;SDS011;48112;53.282;6.150;2022-09-17T00:38:47;0.20;;;0.20;;
62125;SDS011;48112;53.282;6.150;2022-09-17T00:39:51;0.20;;;0.20;;
62125;SDS011;48112;53.282;6.150;2022-09-17T00:40:53;0.20;;;0.20;;
62125;SDS011;48112;53.282;6.150;2022-09-17T00:42:00;0.30;;;0.30;;
62125;SDS011;48112;53.282;6.150;2022-09-17T00:43:09;0.20;;;0.20;;
62125;SDS011;48112;53.282;6.150;2022-09-17T00:45:45;0.28;;;0.28;;
62125;SDS011;48112;53.282;6.150;2022-09-17T00:46:47;0.20;;;0.20;;
62125;SDS011;48112;53.282;6.150;2022-09-17T00:47:54;0.20;;;0.20;;
62125;SDS011;48112;53.282;6.150;2022-09-17T00:49:00;0.20;;;0.20;;
62125;SDS011;48112;53.282;6.150;2022-09-17T00:50:09;0.20;;;0.20;;
62125;SDS011;48112;53.282;6.150;2022-09-17T00:51:16;0.20;;;0.20;;
62125;SDS011;48112;53.282;6.150;2022-09-17T00:52:25;0.10;;;0.10;;
62125;SDS011;48112;53.282;6.150;2022-09-17T00:53:31;0.20;;;0.20;;
62125;SDS011;48112;53.282;6.150;2022-09-17T00:54:34;0.20;;;0.20;;
62125;SDS011;48112;53.282;6.150;2022-09-17T00:55:39;0.30;;;0.30;;
62125;SDS011;48112;53.282;6.150;2022-09-17T00:56:44;0.20;;;0.20;;
62125;SDS011;48112;53.282;6.150;2022-09-17T00:57:48;0.20;;;0.20;;
62125;SDS011;48112;53.282;6.150;2022-09-17T00:58:54;0.20;;;0.20;;
62125;SDS011;48112;53.282;6.150;2022-09-17T00:59:58;0.30;;;0.30;;
62125;SDS011;48112;53.282;6.150;2022-09-17T01:01:02;0.25;;;0.25;;
62125;SDS011;48112;53.282;6.150;2022-09-17T01:02:04;0.30;;;0.30;;
62125;SDS011;48112;53.282;6.150;2022-09-17T01:03:08;0.20;;;0.20;;
62125;SDS011;48112;53.282;6.150;2022-09-17T01:04:14;0.30;;;0.30;;
62125;SDS011;48112;53.282;6.150;2022-09-17T01:05:18;0.10;;;0.10;;
62125;SDS011;48112;53.282;6.150;2022-09-17T01:06:29;0.20;;;0.20;;
62125;SDS011;48112;53.282;6.150;2022-09-17T01:09:15;0.30;;;0.30;;
62125;SDS011;48112;53.282;6.150;2022-09-17T01:10:32;0.30;;;0.30;;
62125;SDS011;48112;53.282;6.150;2022-09-17T01:11:50;0.30;;;0.30;;
62125;SDS011;48112;53.282;6.150;2022-09-17T01:13:11;0.20;;;0.20;;
62125;SDS011;48112;53.282;6.150;2022-09-17T01:14:32;0.20;;;0.20;;
62125;SDS011;48112;53.282;6.150;2022-09-17T01:15:53;0.20;;;0.20;;
62125;SDS011;48112;53.282;6.150;2022-09-17T01:17:03;0.20;;;0.20;;
62125;SDS011;48112;53.282;6.150;2022-09-17T01:18:31;0.20;;;0.20;;
62125;SDS011;48112;53.282;6.150;2022-09-17T01:21:37;0.20;;;0.20;;
62125;SDS011;48112;53.282;6.150;2022-09-17T01:22:52;0.20;;;0.20;;
62125;SDS011;48112;53.282;6.150;2022-09-17T01:25:52;0.20;;;0.20;;
62125;SDS011;48112;53.282;6.150;2022-09-17T01:28:51;0.20;;;0.20;;
62125;SDS011;48112;53.282;6.150;2022-09-17T01:30:16;0.20;;;0.20;;
62125;SDS011;48112;53.282;6.150;2022-09-17T01:31:28;0.20;;;0.20;;
62125;SDS011;48112;53.282;6.150;2022-09-17T01:32:38;0.20;;;0.20;;
62125;SDS011;48112;53.282;6.150;2022-09-17T01:33:49;0.20;;;0.20;;
62125;SDS011;48112;53.282;6.150;2022-09-17T01:35:00;0.20;;;0.20;;
62125;SDS011;48112;53.282;6.150;2022-09-17T01:36:13;0.22;;;0.22;;
62125;SDS011;48112;53.282;6.150;2022-09-17T01:37:27;0.20;;;0.20;;
62125;SDS011;48112;53.282;6.150;2022-09-17T01:38:37;0.30;;;0.30;;
62125;SDS011;48112;53.282;6.150;2022-09-17T01:39:47;0.30;;;0.30;;
62125;SDS011;48112;53.282;6.150;2022-09-17T01:40:55;0.30;;;0.30;;
62125;SDS011;48112;53.282;6.150;2022-09-17T01:42:12;0.20;;;0.20;;
62125;SDS011;48112;53.282;6.150;2022-09-17T01:43:21;0.30;;;0.30;;
62125;SDS011;48112;53.282;6.150;2022-09-17T01:44:27;0.20;;;0.20;;
62125;SDS011;48112;53.282;6.150;2022-09-17T01:45:36;0.20;;;0.20;;
62125;SDS011;48112;53.282;6.150;2022-09-17T01:46:44;0.30;;;0.30;;
62125;SDS011;48112;53.282;6.150;2022-09-17T01:47:53;0.30;;;0.30;;
62125;SDS011;48112;53.282;6.150;2022-09-17T01:48:59;0.30;;;0.30;;
62125;SDS011;48112;53.282;6.150;2022-09-17T01:50:07;0.20;;;0.20;;
62125;SDS011;48112;53.282;6.150;2022-09-17T01:51:13;0.20;;;0.20;;
62125;SDS011;48112;53.282;6.150;2022-09-17T01:52:20;0.20;;;0.20;;
62125;SDS011;48112;53.282;6.150;2022-09-17T01:53:27;0.20;;;0.20;;
62125;SDS011;48112;53.282;6.150;2022-09-17T01:54:38;0.30;;;0.30;;
62125;SDS011;48112;53.282;6.150;2022-09-17T01:55:44;0.30;;;0.30;;
62125;SDS011;48112;53.282;6.150;2022-09-17T01:56:51;0.20;;;0.20;;
62125;SDS011;48112;53.282;6.150;2022-09-17T01:57:58;0.20;;;0.20;;
62125;SDS011;48112;53.282;6.150;2022-09-17T01:59:08;0.30;;;0.30;;
62125;SDS011;48112;53.282;6.150;2022-09-17T02:00:17;0.30;;;0.30;;
62125;SDS011;48112;53.282;6.150;2022-09-17T02:01:21;0.30;;;0.30;;
62125;SDS011;48112;53.282;6.150;2022-09-17T02:02:29;0.28;;;0.28;;
62125;SDS011;48112;53.282;6.150;2022-09-17T02:03:36;0.30;;;0.30;;
62125;SDS011;48112;53.282;6.150;2022-09-17T02:04:43;0.30;;;0.30;;
62125;SDS011;48112;53.282;6.150;2022-09-17T02:05:53;0.30;;;0.30;;
62125;SDS011;48112;53.282;6.150;2022-09-17T02:07:01;0.30;;;0.30;;
62125;SDS011;48112;53.282;6.150;2022-09-17T02:08:12;0.30;;;0.30;;
62125;SDS011;48112;53.282;6.150;2022-09-17T02:09:18;0.30;;;0.30;;
62125;SDS011;48112;53.282;6.150;2022-09-17T02:10:29;0.20;;;0.20;;
62125;SDS011;48112;53.282;6.150;2022-09-17T02:11:35;0.20;;;0.20;;
62125;SDS011;48112;53.282;6.150;2022-09-17T02:12:44;0.20;;;0.20;;
62125;SDS011;48112;53.282;6.150;2022-09-17T02:13:52;0.20;;;0.20;;
62125;SDS011;48112;53.282;6.150;2022-09-17T02:15:02;0.22;;;0.22;;
62125;SDS011;48112;53.282;6.150;2022-09-17T02:16:11;0.20;;;0.20;;
62125;SDS011;48112;53.282;6.150;2022-09-17T02:17:19;0.20;;;0.20;;
62125;SDS011;48112;53.282;6.150;2022-09-17T02:18:29;0.30;;;0.30;;
62125;SDS011;48112;53.282;6.150;2022-09-17T02:19:38;0.30;;;0.30;;
62125;SDS011;48112;53.282;6.150;2022-09-17T02:20:44;0.22;;;0.22;;
62125;SDS011;48112;53.282;6.150;2022-09-17T02:21:50;0.20;;;0.20;;
62125;SDS011;48112;53.282;6.150;2022-09-17T02:23:04;0.30;;;0.30;;
62125;SDS011;48112;53.282;6.150;2022-09-17T02:24:10;0.20;;;0.20;;
62125;SDS011;48112;53.282;6.150;2022-09-17T02:25:21;0.20;;;0.20;;
62125;SDS011;48112;53.282;6.150;2022-09-17T02:26:28;0.30;;;0.30;;
62125;SDS011;48112;53.282;6.150;2022-09-17T02:27:36;0.30;;;0.30;;
62125;SDS011;48112;53.282;6.150;2022-09-17T02:28:48;0.30;;;0.30;;
62125;SDS011;48112;53.282;6.150;2022-09-17T02:29:56;0.25;;;0.25;;
62125;SDS011;48112;53.282;6.150;2022-09-17T02:30:59;0.20;;;0.20;;
62125;SDS011;48112;53.282;6.150;2022-09-17T02:32:03;0.20;;;0.20;;
62125;SDS011;48112;53.282;6.150;2022-09-17T02:33:06;0.20;;;0.20;;
62125;SDS011;48112;53.282;6.150;2022-09-17T02:34:15;0.28;;;0.28;;
62125;SDS011;48112;53.282;6.150;2022-09-17T02:35:18;0.20;;;0.20;;
62125;SDS011;48112;53.282;6.150;2022-09-17T02:36:21;0.20;;;0.20;;
62125;SDS011;48112;53.282;6.150;2022-09-17T02:37:25;0.22;;;0.22;;
62125;SDS011;48112;53.282;6.150;2022-09-17T02:38:29;0.20;;;0.20;;
62125;SDS011;48112;53.282;6.150;2022-09-17T02:39:31;0.20;;;0.20;;
62125;SDS011;48112;53.282;6.150;2022-09-17T02:40:45;0.28;;;0.28;;
62125;SDS011;48112;53.282;6.150;2022-09-17T02:41:57;0.30;;;0.30;;
62125;SDS011;48112;53.282;6.150;2022-09-17T02:43:12;0.20;;;0.20;;
62125;SDS011;48112;53.282;6.150;2022-09-17T02:44:23;0.20;;;0.20;;
62125;SDS011;48112;53.282;6.150;2022-09-17T02:45:39;0.30;;;0.30;;
62125;SDS011;48112;53.282;6.150;2022-09-17T02:46:55;0.30;;;0.30;;
62125;SDS011;48112;53.282;6.150;2022-09-17T02:48:13;0.20;;;0.20;;
62125;SDS011;48112;53.282;6.150;2022-09-17T02:49:38;0.22;;;0.22;;
62125;SDS011;48112;53.282;6.150;2022-09-17T02:51:04;0.20;;;0.20;;
62125;SDS011;48112;53.282;6.150;2022-09-17T02:52:22;0.30;;;0.30;;
62125;SDS011;48112;53.282;6.150;2022-09-17T02:53:38;0.20;;;0.20;;
62125;SDS011;48112;53.282;6.150;2022-09-17T02:54:50;0.20;;;0.20;;
62125;SDS011;48112;53.282;6.150;2022-09-17T02:56:06;0.30;;;0.30;;
62125;SDS011;48112;53.282;6.150;2022-09-17T02:57:16;0.30;;;0.30;;
62125;SDS011;48112;53.282;6.150;2022-09-17T02:58:24;0.30;;;0.30;;
62125;SDS011;48112;53.282;6.150;2022-09-17T02:59:29;0.30;;;0.30;;
62125;SDS011;48112;53.282;6.150;2022-09-17T03:00:36;0.30;;;0.30;;
62125;SDS011;48112;53.282;6.150;2022-09-17T03:01:42;0.20;;;0.20;;
62125;SDS011;48112;53.282;6.150;2022-09-17T03:02:49;0.30;;;0.30;;
62125;SDS011;48112;53.282;6.150;2022-09-17T03:03:57;0.30;;;0.30;;
62125;SDS011;48112;53.282;6.150;2022-09-17T03:05:05;0.30;;;0.30;;
62125;SDS011;48112;53.282;6.150;2022-09-17T03:06:09;0.30;;;0.30;;
62125;SDS011;48112;53.282;6.150;2022-09-17T03:07:12;0.30;;;0.30;;
62125;SDS011;48112;53.282;6.150;2022-09-17T03:08:16;0.20;;;0.20;;
62125;SDS011;48112;53.282;6.150;2022-09-17T03:09:20;0.38;;;0.38;;
62125;SDS011;48112;53.282;6.150;2022-09-17T03:10:23;0.30;;;0.30;;
62125;SDS011;48112;53.282;6.150;2022-09-17T03:11:30;0.22;;;0.22;;
62125;SDS011;48112;53.282;6.150;2022-09-17T03:12:33;0.20;;;0.20;;
62125;SDS011;48112;53.282;6.150;2022-09-17T03:13:38;0.20;;;0.20;;
62125;SDS011;48112;53.282;6.150;2022-09-17T03:14:41;0.30;;;0.30;;
62125;SDS011;48112;53.282;6.150;2022-09-17T03:15:44;0.30;;;0.30;;
62125;SDS011;48112;53.282;6.150;2022-09-17T03:16:46;0.20;;;0.20;;
62125;SDS011;48112;53.282;6.150;2022-09-17T03:17:49;0.20;;;0.20;;
62125;SDS011;48112;53.282;6.150;2022-09-17T03:18:54;0.20;;;0.20;;
62125;SDS011;48112;53.282;6.150;2022-09-17T03:19:57;0.30;;;0.30;;
62125;SDS011;48112;53.282;6.150;2022-09-17T03:21:04;0.20;;;0.20;;
62125;SDS011;48112;53.282;6.150;2022-09-17T03:22:07;0.30;;;0.30;;
62125;SDS011;48112;53.282;6.150;2022-09-17T03:23:10;0.20;;;0.20;;
62125;SDS011;48112;53.282;6.150;2022-09-17T03:24:13;0.28;;;0.28;;
62125;SDS011;48112;53.282;6.150;2022-09-17T03:25:16;0.30;;;0.30;;
62125;SDS011;48112;53.282;6.150;2022-09-17T03:26:19;0.30;;;0.30;;
62125;SDS011;48112;53.282;6.150;2022-09-17T03:27:21;0.20;;;0.20;;
62125;SDS011;48112;53.282;6.150;2022-09-17T03:28:24;0.20;;;0.20;;
62125;SDS011;48112;53.282;6.150;2022-09-17T03:29:26;0.20;;;0.20;;
62125;SDS011;48112;53.282;6.150;2022-09-17T03:30:30;0.20;;;0.20;;
62125;SDS011;48112;53.282;6.150;2022-09-17T03:31:33;0.20;;;0.20;;
62125;SDS011;48112;53.282;6.150;2022-09-17T03:32:35;0.30;;;0.30;;
62125;SDS011;48112;53.282;6.150;2022-09-17T03:33:38;0.30;;;0.30;;
62125;SDS011;48112;53.282;6.150;2022-09-17T03:34:40;0.30;;;0.30;;
62125;SDS011;48112;53.282;6.150;2022-09-17T03:35:44;0.30;;;0.30;;
62125;SDS011;48112;53.282;6.150;2022-09-17T03:36:47;0.30;;;0.30;;
62125;SDS011;48112;53.282;6.150;2022-09-17T03:37:50;0.30;;;0.30;;
62125;SDS011;48112;53.282;6.150;2022-09-17T03:38:53;0.30;;;0.30;;
62125;SDS011;48112;53.282;6.150;2022-09-17T03:39:56;0.20;;;0.20;;
62125;SDS011;48112;53.282;6.150;2022-09-17T03:40:59;0.30;;;0.30;;
62125;SDS011;48112;53.282;6.150;2022-09-17T03:42:02;0.30;;;0.30;;
62125;SDS011;48112;53.282;6.150;2022-09-17T03:43:04;0.30;;;0.30;;
62125;SDS011;48112;53.282;6.150;2022-09-17T03:44:08;0.30;;;0.30;;
62125;SDS011;48112;53.282;6.150;2022-09-17T03:45:10;0.30;;;0.30;;
62125;SDS011;48112;53.282;6.150;2022-09-17T03:46:13;0.30;;;0.30;;
62125;SDS011;48112;53.282;6.150;2022-09-17T03:47:15;0.20;;;0.20;;
62125;SDS011;48112;53.282;6.150;2022-09-17T03:48:18;0.28;;;0.28;;
62125;SDS011;48112;53.282;6.150;2022-09-17T03:49:20;0.20;;;0.20;;
62125;SDS011;48112;53.282;6.150;2022-09-17T03:50:25;0.20;;;0.20;;
62125;SDS011;48112;53.282;6.150;2022-09-17T03:51:27;0.30;;;0.30;;
62125;SDS011;48112;53.282;6.150;2022-09-17T03:52:31;0.25;;;0.25;;
62125;SDS011;48112;53.282;6.150;2022-09-17T03:53:33;0.30;;;0.30;;
62125;SDS011;48112;53.282;6.150;2022-09-17T03:54:36;0.30;;;0.30;;
62125;SDS011;48112;53.282;6.150;2022-09-17T03:55:38;0.30;;;0.30;;
62125;SDS011;48112;53.282;6.150;2022-09-17T03:56:41;0.30;;;0.30;;
62125;SDS011;48112;53.282;6.150;2022-09-17T03:57:42;0.25;;;0.25;;
62125;SDS011;48112;53.282;6.150;2022-09-17T03:58:45;0.30;;;0.30;;
62125;SDS011;48112;53.282;6.150;2022-09-17T03:59:47;0.30;;;0.30;;
62125;SDS011;48112;53.282;6.150;2022-09-17T04:00:50;0.30;;;0.30;;
62125;SDS011;48112;53.282;6.150;2022-09-17T04:01:53;0.28;;;0.28;;
62125;SDS011;48112;53.282;6.150;2022-09-17T04:02:56;0.30;;;0.30;;
62125;SDS011;48112;53.282;6.150;2022-09-17T04:03:58;0.28;;;0.28;;
62125;SDS011;48112;53.282;6.150;2022-09-17T04:05:01;0.30;;;0.30;;
62125;SDS011;48112;53.282;6.150;2022-09-17T04:06:04;0.30;;;0.30;;
62125;SDS011;48112;53.282;6.150;2022-09-17T04:07:07;0.25;;;0.25;;
62125;SDS011;48112;53.282;6.150;2022-09-17T04:08:10;0.38;;;0.38;;
62125;SDS011;48112;53.282;6.150;2022-09-17T04:09:13;0.30;;;0.30;;
62125;SDS011;48112;53.282;6.150;2022-09-17T04:10:15;0.30;;;0.30;;
62125;SDS011;48112;53.282;6.150;2022-09-17T04:11:18;0.30;;;0.30;;
62125;SDS011;48112;53.282;6.150;2022-09-17T04:12:19;0.30;;;0.30;;
62125;SDS011;48112;53.282;6.150;2022-09-17T04:13:22;0.30;;;0.30;;
62125;SDS011;48112;53.282;6.150;2022-09-17T04:14:24;0.28;;;0.28;;
62125;SDS011;48112;53.282;6.150;2022-09-17T04:15:27;0.30;;;0.30;;
62125;SDS011;48112;53.282;6.150;2022-09-17T04:16:29;0.30;;;0.30;;
62125;SDS011;48112;53.282;6.150;2022-09-17T04:17:32;0.20;;;0.20;;
62125;SDS011;48112;53.282;6.150;2022-09-17T04:18:34;0.32;;;0.32;;
62125;SDS011;48112;53.282;6.150;2022-09-17T04:19:37;0.35;;;0.35;;
62125;SDS011;48112;53.282;6.150;2022-09-17T04:20:38;0.30;;;0.30;;
62125;SDS011;48112;53.282;6.150;2022-09-17T04:21:41;0.35;;;0.35;;
62125;SDS011;48112;53.282;6.150;2022-09-17T04:22:43;0.28;;;0.28;;
62125;SDS011;48112;53.282;6.150;2022-09-17T04:23:47;0.30;;;0.30;;
62125;SDS011;48112;53.282;6.150;2022-09-17T04:24:49;0.20;;;0.20;;
62125;SDS011;48112;53.282;6.150;2022-09-17T04:25:52;0.30;;;0.30;;
62125;SDS011;48112;53.282;6.150;2022-09-17T04:26:54;0.30;;;0.30;;
62125;SDS011;48112;53.282;6.150;2022-09-17T04:27:57;0.30;;;0.30;;
62125;SDS011;48112;53.282;6.150;2022-09-17T04:28:58;0.30;;;0.30;;
62125;SDS011;48112;53.282;6.150;2022-09-17T04:30:02;0.25;;;0.25;;
62125;SDS011;48112;53.282;6.150;2022-09-17T04:31:04;0.30;;;0.30;;
62125;SDS011;48112;53.282;6.150;2022-09-17T04:32:07;0.20;;;0.20;;
62125;SDS011;48112;53.282;6.150;2022-09-17T04:33:09;0.30;;;0.30;;
62125;SDS011;48112;53.282;6.150;2022-09-17T04:34:12;0.22;;;0.22;;
62125;SDS011;48112;53.282;6.150;2022-09-17T04:35:14;0.30;;;0.30;;
62125;SDS011;48112;53.282;6.150;2022-09-17T04:36:17;0.30;;;0.30;;
62125;SDS011;48112;53.282;6.150;2022-09-17T04:37:19;0.30;;;0.30;;
62125;SDS011;48112;53.282;6.150;2022-09-17T04:38:22;0.30;;;0.30;;
62125;SDS011;48112;53.282;6.150;2022-09-17T04:39:25;0.30;;;0.30;;
62125;SDS011;48112;53.282;6.150;2022-09-17T04:40:28;0.30;;;0.30;;
62125;SDS011;48112;53.282;6.150;2022-09-17T04:41:30;0.30;;;0.30;;
62125;SDS011;48112;53.282;6.150;2022-09-17T04:42:33;0.30;;;0.30;;
62125;SDS011;48112;53.282;6.150;2022-09-17T04:43:35;0.30;;;0.30;;
62125;SDS011;48112;53.282;6.150;2022-09-17T04:44:37;0.30;;;0.30;;
62125;SDS011;48112;53.282;6.150;2022-09-17T04:45:39;0.30;;;0.30;;
62125;SDS011;48112;53.282;6.150;2022-09-17T04:46:42;0.30;;;0.30;;
62125;SDS011;48112;53.282;6.150;2022-09-17T04:47:45;0.30;;;0.30;;
62125;SDS011;48112;53.282;6.150;2022-09-17T04:48:47;0.30;;;0.30;;
62125;SDS011;48112;53.282;6.150;2022-09-17T04:49:50;0.30;;;0.30;;
62125;SDS011;48112;53.282;6.150;2022-09-17T04:50:52;0.40;;;0.40;;
62125;SDS011;48112;53.282;6.150;2022-09-17T04:51:55;0.38;;;0.38;;
62125;SDS011;48112;53.282;6.150;2022-09-17T04:52:57;0.38;;;0.38;;
62125;SDS011;48112;53.282;6.150;2022-09-17T04:53:59;0.30;;;0.30;;
62125;SDS011;48112;53.282;6.150;2022-09-17T04:55:03;0.28;;;0.28;;
62125;SDS011;48112;53.282;6.150;2022-09-17T04:56:07;0.30;;;0.30;;
62125;SDS011;48112;53.282;6.150;2022-09-17T04:57:09;0.30;;;0.30;;
62125;SDS011;48112;53.282;6.150;2022-09-17T04:58:12;0.30;;;0.30;;
62125;SDS011;48112;53.282;6.150;2022-09-17T04:59:14;0.30;;;0.30;;
62125;SDS011;48112;53.282;6.150;2022-09-17T05:00:17;0.38;;;0.38;;
62125;SDS011;48112;53.282;6.150;2022-09-17T05:01:20;0.30;;;0.30;;
62125;SDS011;48112;53.282;6.150;2022-09-17T05:02:23;0.30;;;0.30;;
62125;SDS011;48112;53.282;6.150;2022-09-17T05:03:25;0.30;;;0.30;;
62125;SDS011;48112;53.282;6.150;2022-09-17T05:04:27;0.25;;;0.25;;
62125;SDS011;48112;53.282;6.150;2022-09-17T05:05:29;0.30;;;0.30;;
62125;SDS011;48112;53.282;6.150;2022-09-17T05:06:33;0.30;;;0.30;;
62125;SDS011;48112;53.282;6.150;2022-09-17T05:07:36;0.40;;;0.40;;
62125;SDS011;48112;53.282;6.150;2022-09-17T05:08:40;0.40;;;0.40;;
62125;SDS011;48112;53.282;6.150;2022-09-17T05:09:41;0.47;;;0.47;;
62125;SDS011;48112;53.282;6.150;2022-09-17T05:10:46;0.50;;;0.50;;
62125;SDS011;48112;53.282;6.150;2022-09-17T05:11:48;0.50;;;0.50;;
62125;SDS011;48112;53.282;6.150;2022-09-17T05:12:51;0.40;;;0.40;;
62125;SDS011;48112;53.282;6.150;2022-09-17T05:13:55;0.50;;;0.50;;
62125;SDS011;48112;53.282;6.150;2022-09-17T05:14:57;0.40;;;0.40;;
62125;SDS011;48112;53.282;6.150;2022-09-17T05:15:59;0.50;;;0.50;;
62125;SDS011;48112;53.282;6.150;2022-09-17T05:17:02;0.50;;;0.50;;
62125;SDS011;48112;53.282;6.150;2022-09-17T05:18:04;0.40;;;0.40;;
62125;SDS011;48112;53.282;6.150;2022-09-17T05:19:07;0.40;;;0.40;;
62125;SDS011;48112;53.282;6.150;2022-09-17T05:20:09;0.43;;;0.43;;
62125;SDS011;48112;53.282;6.150;2022-09-17T05:21:12;0.47;;;0.47;;
62125;SDS011;48112;53.282;6.150;2022-09-17T05:22:14;0.50;;;0.50;;
62125;SDS011;48112;53.282;6.150;2022-09-17T05:23:22;0.45;;;0.45;;
62125;SDS011;48112;53.282;6.150;2022-09-17T05:24:24;0.40;;;0.40;;
62125;SDS011;48112;53.282;6.150;2022-09-17T05:25:27;0.40;;;0.40;;
62125;SDS011;48112;53.282;6.150;2022-09-17T05:26:30;0.40;;;0.40;;
62125;SDS011;48112;53.282;6.150;2022-09-17T05:27:33;0.50;;;0.50;;
62125;SDS011;48112;53.282;6.150;2022-09-17T05:28:35;0.40;;;0.40;;
62125;SDS011;48112;53.282;6.150;2022-09-17T05:29:38;0.50;;;0.50;;
62125;SDS011;48112;53.282;6.150;2022-09-17T05:30:40;0.50;;;0.50;;
62125;SDS011;48112;53.282;6.150;2022-09-17T05:31:43;0.50;;;0.50;;
62125;SDS011;48112;53.282;6.150;2022-09-17T05:32:45;0.50;;;0.50;;
62125;SDS011;48112;53.282;6.150;2022-09-17T05:33:48;0.40;;;0.40;;
62125;SDS011;48112;53.282;6.150;2022-09-17T05:34:49;0.40;;;0.40;;
62125;SDS011;48112;53.282;6.150;2022-09-17T05:35:52;0.40;;;0.40;;
62125;SDS011;48112;53.282;6.150;2022-09-17T05:36:54;0.50;;;0.50;;
62125;SDS011;48112;53.282;6.150;2022-09-17T05:37:58;0.40;;;0.40;;
62125;SDS011;48112;53.282;6.150;2022-09-17T05:39:00;0.50;;;0.50;;
62125;SDS011;48112;53.282;6.150;2022-09-17T05:40:04;0.50;;;0.50;;
62125;SDS011;48112;53.282;6.150;2022-09-17T05:41:08;0.50;;;0.50;;
62125;SDS011;48112;53.282;6.150;2022-09-17T05:42:12;0.40;;;0.40;;
62125;SDS011;48112;53.282;6.150;2022-09-17T05:43:14;0.40;;;0.40;;
62125;SDS011;48112;53.282;6.150;2022-09-17T05:44:18;0.50;;;0.50;;
62125;SDS011;48112;53.282;6.150;2022-09-17T05:45:20;0.40;;;0.40;;
62125;SDS011;48112;53.282;6.150;2022-09-17T05:46:23;0.50;;;0.50;;
62125;SDS011;48112;53.282;6.150;2022-09-17T05:47:25;0.50;;;0.50;;
62125;SDS011;48112;53.282;6.150;2022-09-17T05:48:28;0.50;;;0.50;;
62125;SDS011;48112;53.282;6.150;2022-09-17T05:49:30;0.50;;;0.50;;
62125;SDS011;48112;53.282;6.150;2022-09-17T05:50:33;0.40;;;0.40;;
62125;SDS011;48112;53.282;6.150;2022-09-17T05:51:35;0.50;;;0.50;;
62125;SDS011;48112;53.282;6.150;2022-09-17T05:52:38;0.43;;;0.43;;
62125;SDS011;48112;53.282;6.150;2022-09-17T05:53:40;0.40;;;0.40;;
62125;SDS011;48112;53.282;6.150;2022-09-17T05:54:44;0.40;;;0.40;;
62125;SDS011;48112;53.282;6.150;2022-09-17T05:55:45;0.40;;;0.40;;
62125;SDS011;48112;53.282;6.150;2022-09-17T05:56:51;0.50;;;0.50;;
62125;SDS011;48112;53.282;6.150;2022-09-17T05:57:55;0.40;;;0.40;;
62125;SDS011;48112;53.282;6.150;2022-09-17T05:58:59;0.45;;;0.45;;
62125;SDS011;48112;53.282;6.150;2022-09-17T06:00:02;0.40;;;0.40;;
62125;SDS011;48112;53.282;6.150;2022-09-17T06:01:12;0.40;;;0.40;;
62125;SDS011;48112;53.282;6.150;2022-09-17T06:02:16;0.50;;;0.50;;
62125;SDS011;48112;53.282;6.150;2022-09-17T06:03:19;0.50;;;0.50;;
62125;SDS011;48112;53.282;6.150;2022-09-17T06:04:23;0.50;;;0.50;;
62125;SDS011;48112;53.282;6.150;2022-09-17T06:05:27;0.50;;;0.50;;
62125;SDS011;48112;53.282;6.150;2022-09-17T06:06:29;0.50;;;0.50;;
62125;SDS011;48112;53.282;6.150;2022-09-17T06:07:33;0.50;;;0.50;;
62125;SDS011;48112;53.282;6.150;2022-09-17T06:08:35;0.40;;;0.40;;
62125;SDS011;48112;53.282;6.150;2022-09-17T06:09:38;0.60;;;0.60;;
62125;SDS011;48112;53.282;6.150;2022-09-17T06:10:41;0.50;;;0.50;;
62125;SDS011;48112;53.282;6.150;2022-09-17T06:11:44;0.47;;;0.47;;
62125;SDS011;48112;53.282;6.150;2022-09-17T06:12:47;0.45;;;0.45;;
62125;SDS011;48112;53.282;6.150;2022-09-17T06:13:52;0.50;;;0.50;;
62125;SDS011;48112;53.282;6.150;2022-09-17T06:14:56;0.40;;;0.40;;
62125;SDS011;48112;53.282;6.150;2022-09-17T06:15:57;0.50;;;0.50;;
62125;SDS011;48112;53.282;6.150;2022-09-17T06:17:01;0.45;;;0.45;;
62125;SDS011;48112;53.282;6.150;2022-09-17T06:18:04;0.45;;;0.45;;
62125;SDS011;48112;53.282;6.150;2022-09-17T06:19:07;0.40;;;0.40;;
62125;SDS011;48112;53.282;6.150;2022-09-17T06:20:09;0.40;;;0.40;;
62125;SDS011;48112;53.282;6.150;2022-09-17T06:21:12;0.50;;;0.50;;
62125;SDS011;48112;53.282;6.150;2022-09-17T06:22:16;0.45;;;0.45;;
62125;SDS011;48112;53.282;6.150;2022-09-17T06:23:19;0.40;;;0.40;;
62125;SDS011;48112;53.282;6.150;2022-09-17T06:24:22;0.40;;;0.40;;
62125;SDS011;48112;53.282;6.150;2022-09-17T06:25:25;0.50;;;0.50;;
62125;SDS011;48112;53.282;6.150;2022-09-17T06:26:27;0.50;;;0.50;;
62125;SDS011;48112;53.282;6.150;2022-09-17T06:27:30;0.50;;;0.50;;
62125;SDS011;48112;53.282;6.150;2022-09-17T06:28:33;0.50;;;0.50;;
62125;SDS011;48112;53.282;6.150;2022-09-17T06:29:43;0.50;;;0.50;;
62125;SDS011;48112;53.282;6.150;2022-09-17T06:30:46;0.40;;;0.40;;
62125;SDS011;48112;53.282;6.150;2022-09-17T06:31:48;0.50;;;0.50;;
62125;SDS011;48112;53.282;6.150;2022-09-17T06:32:52;0.50;;;0.50;;
62125;SDS011;48112;53.282;6.150;2022-09-17T06:33:54;0.40;;;0.40;;
62125;SDS011;48112;53.282;6.150;2022-09-17T06:34:59;0.50;;;0.50;;
62125;SDS011;48112;53.282;6.150;2022-09-17T06:36:02;0.50;;;0.50;;
62125;SDS011;48112;53.282;6.150;2022-09-17T06:37:13;0.50;;;0.50;;
62125;SDS011;48112;53.282;6.150;2022-09-17T06:38:15;0.43;;;0.43;;
62125;SDS011;48112;53.282;6.150;2022-09-17T06:39:18;0.50;;;0.50;;
62125;SDS011;48112;53.282;6.150;2022-09-17T06:40:20;0.40;;;0.40;;
62125;SDS011;48112;53.282;6.150;2022-09-17T06:41:24;0.40;;;0.40;;